Alcantara, Brazil
Current Conditions -  °F | °C
As of 3:00 PM on Monday 24 Nov 2014 (Local Time) from SBSL Reporting Station
Scattered Clouds Scattered Clouds  
Wind Chill: 90°   Ceiling: Unl
Heat Index: 93°   Visibility: 6mi
Dew Point: 68°   Wind: 20mph
Humidity: 49%   Direction: 30°NNE
Pressure: 29.83"   Gusts: NA
Location:  2.41°S, 44.41°W
Report Text: SBSL 241800Z 03017KT 9999 SCT020 32/20 Q1010
Loading
Personal Weather Stations






























Interactive Weather Map New forecast layout! Learn more

10-Day Weather Forecast

Advertisements
Track Severe Weather on mobile